Time;durP1;ratioP1;P1;durP2;ratioP2;P2;SDS_P1;SDS_P2;PMS_P1;PMS_P2;Temp;Humidity;BMP_temperature;BMP_pressure;BME280_temperature;BME280_humidity;BME280_pressure;Samples;Min_cycle;Max_cycle;Signal;HPM_P1;HPM_P2
2023/08/26 10:48:57;;;;;;;8.13;4.82;;;;;;;37.82;24.70;99893.06;5121794;27;20969;-29
2023/08/26 10:51:23;;;;;;;9.63;6.25;;;;;;;37.73;25.34;99896.34;5122361;27;20027;-30
2023/08/26 10:53:49;;;;;;;8.70;5.17;;;;;;;38.05;24.97;99890.53;5122954;27;20109;-33
2023/08/26 10:56:18;;;;;;;11.23;5.40;;;;;;;38.39;25.07;99882.28;5122747;27;20027;-29
2023/08/26 10:58:47;;;;;;;7.93;5.35;;;;;;;38.84;24.67;99888.97;5112235;27;20024;-30
2023/08/26 11:01:16;;;;;;;6.80;5.30;;;;;;;38.11;25.31;99888.13;5122675;28;20035;-31
2023/08/26 11:03:48;;;;;;;8.45;5.15;;;;;;;37.85;25.66;99870.78;5123339;27;20036;-30
2023/08/26 11:06:22;;;;;;;7.95;5.55;;;;;;;37.90;26.48;99878.69;5122989;27;20122;-29
2023/08/26 11:08:57;;;;;;;8.27;5.53;;;;;;;37.93;25.17;99872.31;5116726;27;20031;-29
2023/08/26 11:11:24;;;;;;;8.68;5.45;;;;;;;38.20;24.73;99874.50;5102308;28;20031;-30
2023/08/26 11:13:49;;;;;;;6.28;5.30;;;;;;;38.12;25.09;99861.84;5102119;28;20059;-30
2023/08/26 11:16:15;;;;;;;8.93;5.25;;;;;;;38.00;24.99;99860.31;5102432;28;20047;-31
2023/08/26 11:18:44;;;;;;;8.52;5.68;;;;;;;38.02;25.44;99862.69;5102504;28;20463;-29
2023/08/26 11:21:09;;;;;;;8.88;5.75;;;;;;;37.76;25.97;99862.09;5102117;28;20032;-29
2023/08/26 11:23:35;;;;;;;7.30;5.28;;;;;;;38.54;24.47;99854.28;5102307;28;20024;-32
2023/08/26 11:26:01;;;;;;;9.10;5.67;;;;;;;38.87;23.84;99832.41;5101971;28;20024;-29
2023/08/26 11:28:27;;;;;;;7.50;4.93;;;;;;;38.43;24.95;99840.44;5102095;28;20020;-31
2023/08/26 11:30:56;;;;;;;9.20;5.50;;;;;;;38.28;24.49;99853.72;5101770;28;20709;-29
2023/08/26 11:33:22;;;;;;;8.15;5.22;;;;;;;38.12;25.80;99856.28;5102020;28;20032;-32
2023/08/26 11:35:49;;;;;;;9.05;5.20;;;;;;;38.06;24.86;99841.22;5101686;28;20046;-31
2023/08/26 11:38:15;;;;;;;7.45;5.70;;;;;;;37.97;25.35;99836.88;5101638;28;20118;-30
2023/08/26 11:40:41;;;;;;;9.23;5.03;;;;;;;37.88;25.63;99825.44;5101716;28;20020;-31
2023/08/26 11:43:07;;;;;;;8.60;5.25;;;;;;;37.71;25.77;99820.81;5114323;28;20069;-30
2023/08/26 11:45:34;;;;;;;10.98;5.75;;;;;;;38.27;25.32;99817.94;5121872;27;20159;-30
2023/08/26 11:47:59;;;;;;;10.20;5.32;;;;;;;38.33;25.54;99814.31;5114904;28;20130;-29
2023/08/26 11:50:26;;;;;;;9.23;5.68;;;;;;;38.69;24.95;99815.91;5107934;28;20472;-30
2023/08/26 11:52:53;;;;;;;8.50;5.70;;;;;;;38.67;24.50;99816.31;5107795;28;20423;-30
2023/08/26 11:55:19;;;;;;;7.50;5.72;;;;;;;38.52;25.45;99806.56;5103115;28;20053;-30
2023/08/26 11:57:47;;;;;;;10.13;5.90;;;;;;;38.15;25.30;99806.13;5099976;28;20055;-30
2023/08/26 12:00:17;;;;;;;8.57;5.57;;;;;;;38.46;25.65;99797.84;5093805;28;20484;-33
2023/08/26 12:02:52;;;;;;;9.23;5.47;;;;;;;38.67;24.70;99796.81;5088018;28;20019;-30
2023/08/26 12:05:19;;;;;;;7.93;5.65;;;;;;;39.21;24.15;99786.94;5087832;28;20032;-30
2023/08/26 12:07:50;;;;;;;8.68;5.70;;;;;;;39.40;24.26;99780.66;5087810;28;20027;-30
2023/08/26 12:10:20;;;;;;;8.90;6.30;;;;;;;39.28;24.11;99784.03;5087479;28;20184;-29
2023/08/26 12:12:47;;;;;;;6.50;5.68;;;;;;;39.18;24.71;99783.78;5086349;28;20518;-29
2023/08/26 12:15:17;;;;;;;7.30;5.55;;;;;;;38.68;24.94;99787.25;5087416;28;20032;-29
2023/08/26 12:17:55;;;;;;;8.55;6.18;;;;;;;38.63;24.91;99768.19;5087491;28;20024;-29
2023/08/26 12:20:28;;;;;;;10.07;5.82;;;;;;;39.45;23.88;99771.81;5087507;28;20024;-29
2023/08/26 12:22:55;;;;;;;8.27;5.47;;;;;;;39.89;23.66;99769.91;5087611;28;20081;-29
2023/08/26 12:25:24;;;;;;;8.15;6.13;;;;;;;40.11;23.88;99767.50;5087437;28;20450;-32
2023/08/26 12:27:49;;;;;;;7.95;5.88;;;;;;;39.22;24.98;99757.84;5087327;28;20122;-30
2023/08/26 12:30:16;;;;;;;9.50;6.10;;;;;;;38.98;24.50;99743.84;5087399;28;20115;-29
2023/08/26 12:32:42;;;;;;;7.55;5.68;;;;;;;39.53;24.05;99748.19;5087424;28;20461;-32
2023/08/26 12:35:08;;;;;;;9.63;6.00;;;;;;;39.70;24.15;99748.28;5086880;28;20023;-30
2023/08/26 12:37:36;;;;;;;9.10;6.33;;;;;;;39.27;23.64;99737.81;5086360;28;20032;-29
2023/08/26 12:40:04;;;;;;;8.68;6.45;;;;;;;39.14;24.05;99746.78;5086834;28;20036;-33
2023/08/26 12:42:34;;;;;;;11.18;6.78;;;;;;;39.87;23.55;99747.22;5086838;28;20044;-31
2023/08/26 12:45:00;;;;;;;9.35;5.85;;;;;;;39.38;23.59;99749.63;5086652;28;20121;-30
2023/08/26 12:47:27;;;;;;;7.33;5.60;;;;;;;38.95;24.43;99727.94;5087008;28;20386;-31
2023/08/26 12:49:54;;;;;;;8.00;5.75;;;;;;;38.92;24.39;99720.41;5086795;28;20034;-30
2023/08/26 12:52:20;;;;;;;7.90;6.13;;;;;;;38.54;25.05;99728.94;5095124;27;20043;-29
2023/08/26 12:54:45;;;;;;;9.60;6.00;;;;;;;38.84;24.46;99728.09;5095906;28;20028;-29
2023/08/26 12:57:10;;;;;;;9.77;6.00;;;;;;;39.00;23.79;99729.50;5088885;28;20027;-29
2023/08/26 12:59:36;;;;;;;9.13;6.73;;;;;;;39.17;24.45;99725.63;5094924;28;20031;-29
2023/08/26 13:02:01;;;;;;;8.47;6.07;;;;;;;39.60;23.22;99732.53;5085965;28;20024;-31
2023/08/26 13:04:30;;;;;;;6.97;5.40;;;;;;;40.04;23.63;99719.38;5086581;28;20034;-29
2023/08/26 13:06:55;;;;;;;9.15;5.50;;;;;;;40.29;22.31;99721.66;5086126;28;20066;-28
2023/08/26 13:09:20;;;;;;;9.60;5.23;;;;;;;40.55;22.40;99717.16;5086466;28;20431;-29
2023/08/26 13:11:46;;;;;;;10.47;6.03;;;;;;;40.14;22.99;99721.16;5086807;28;20488;-29
2023/08/26 13:14:12;;;;;;;9.10;6.10;;;;;;;39.92;23.43;99721.59;5086494;28;20028;-32
2023/08/26 13:16:39;;;;;;;9.13;5.70;;;;;;;39.63;22.90;99710.13;5086232;28;20032;-29
2023/08/26 13:19:05;;;;;;;7.75;5.80;;;;;;;40.41;22.82;99717.47;5086397;28;20587;-29
2023/08/26 13:21:30;;;;;;;9.17;5.77;;;;;;;40.97;21.81;99714.63;5086323;28;20123;-30
2023/08/26 13:23:58;;;;;;;8.40;6.07;;;;;;;41.37;21.59;99714.47;5086194;28;20131;-31
2023/08/26 13:26:23;;;;;;;10.90;6.35;;;;;;;40.44;21.72;99717.38;5086165;28;20047;-30
2023/08/26 13:28:49;;;;;;;7.23;5.67;;;;;;;40.61;21.94;99721.00;5086479;28;20472;-31
2023/08/26 13:31:14;;;;;;;9.43;5.80;;;;;;;40.52;21.92;99715.22;5086145;28;20486;-29
2023/08/26 13:33:40;;;;;;;9.20;5.83;;;;;;;40.05;22.68;99712.56;5085947;28;20434;-31
2023/08/26 13:36:05;;;;;;;9.50;6.50;;;;;;;40.23;22.09;99706.63;5085712;28;20035;-29
2023/08/26 13:38:30;;;;;;;7.67;5.47;;;;;;;40.61;21.72;99709.81;5086202;28;20028;-29
2023/08/26 13:40:56;;;;;;;10.13;5.77;;;;;;;40.16;22.03;99713.94;5086043;28;20058;-29
2023/08/26 13:43:21;;;;;;;6.97;5.50;;;;;;;40.79;22.18;99703.88;5085954;28;20307;-31
2023/08/26 13:45:47;;;;;;;7.23;5.50;;;;;;;40.72;21.17;99706.78;5085701;28;20055;-29
2023/08/26 13:48:12;;;;;;;8.93;5.77;;;;;;;41.16;20.54;99699.78;5087927;28;20044;-29
2023/08/26 13:50:38;;;;;;;8.10;5.97;;;;;;;40.48;21.38;99700.53;5098198;28;20036;-29
2023/08/26 13:53:04;;;;;;;9.33;5.73;;;;;;;39.73;22.15;99705.59;5091696;28;20016;-29
2023/08/26 13:55:29;;;;;;;8.17;6.00;;;;;;;39.90;22.82;99684.94;5084323;28;20111;-31
2023/08/26 13:57:54;;;;;;;8.43;5.07;;;;;;;39.89;22.00;99685.38;5091880;28;20492;-30
2023/08/26 14:00:22;;;;;;;7.97;5.23;;;;;;;39.36;22.01;99685.09;5090671;28;20024;-30
2023/08/26 14:02:48;;;;;;;8.35;5.28;;;;;;;39.36;22.43;99679.50;5085624;28;20028;-31
2023/08/26 14:05:13;;;;;;;14.23;5.60;;;;;;;39.30;22.69;99682.00;5085857;28;20035;-29
2023/08/26 14:07:41;;;;;;;9.17;5.60;;;;;;;39.89;22.12;99672.19;5085496;28;20032;-29
2023/08/26 14:10:07;;;;;;;8.40;5.50;;;;;;;40.55;21.80;99684.41;5083954;28;20024;-29
2023/08/26 14:12:34;;;;;;;6.72;4.95;;;;;;;40.58;21.73;99688.31;5085367;28;20051;-31
2023/08/26 14:14:59;;;;;;;7.22;5.03;;;;;;;39.86;22.11;99675.84;5085316;28;20043;-32
2023/08/26 14:17:25;;;;;;;7.67;5.27;;;;;;;40.19;22.24;99678.75;5085513;28;20063;-29
2023/08/26 14:19:53;;;;;;;8.80;4.83;;;;;;;40.40;22.03;99676.75;5085232;28;20020;-30
2023/08/26 14:22:18;;;;;;;9.48;5.55;;;;;;;40.36;22.10;99665.69;5085513;28;20081;-29
2023/08/26 14:24:47;;;;;;;8.23;5.40;;;;;;;40.65;21.49;99677.00;5085218;28;20028;-30
2023/08/26 14:27:15;;;;;;;7.85;5.20;;;;;;;40.15;21.39;99678.03;5085302;28;20439;-32
2023/08/26 14:29:41;;;;;;;8.05;5.00;;;;;;;40.70;21.20;99679.28;5084759;28;20059;-29
2023/08/26 14:32:06;;;;;;;7.83;5.33;;;;;;;40.85;20.47;99670.59;5085157;28;20427;-29
2023/08/26 14:34:37;;;;;;;9.43;5.70;;;;;;;41.01;20.56;99670.59;5085262;28;20415;-30
2023/08/26 14:37:03;;;;;;;10.32;5.20;;;;;;;41.80;20.51;99668.56;5085034;28;20024;-30
2023/08/26 14:39:28;;;;;;;10.83;5.90;;;;;;;41.59;20.05;99663.53;5085255;28;20032;-29
2023/08/26 14:41:59;;;;;;;8.03;4.97;;;;;;;41.61;20.17;99666.72;5084978;28;20125;-30
2023/08/26 14:44:24;;;;;;;7.72;4.82;;;;;;;41.21;20.63;99656.50;5084988;28;20024;-30
2023/08/26 14:46:52;;;;;;;12.33;5.37;;;;;;;41.12;20.70;99662.72;5094534;28;20047;-31
2023/08/26 14:49:18;;;;;;;8.20;4.70;;;;;;;41.52;19.96;99650.50;5093290;28;20028;-29
2023/08/26 14:51:43;;;;;;;8.17;4.63;;;;;;;41.85;20.25;99659.63;5105228;28;20028;-29
2023/08/26 14:54:09;;;;;;;8.00;5.13;;;;;;;41.92;19.41;99659.41;5105320;28;20027;-29
2023/08/26 14:56:34;;;;;;;7.83;4.60;;;;;;;42.40;19.26;99661.66;5104835;28;20039;-29
2023/08/26 14:58:59;;;;;;;7.10;4.50;;;;;;;42.25;19.02;99655.69;5096658;28;20416;-29
2023/08/26 15:01:25;;;;;;;10.27;4.67;;;;;;;42.25;19.47;99656.47;5085863;28;20518;-29
2023/08/26 15:03:50;;;;;;;9.93;5.10;;;;;;;42.02;19.29;99648.38;5085692;28;20016;-34
2023/08/26 15:06:16;;;;;;;9.23;4.83;;;;;;;41.64;20.00;99646.22;5088622;28;20070;-29
2023/08/26 15:08:42;;;;;;;9.37;5.00;;;;;;;41.12;20.33;99648.72;5095027;28;20032;-31
2023/08/26 15:11:07;;;;;;;10.70;4.73;;;;;;;40.90;20.51;99647.69;5085728;28;20428;-30
2023/08/26 15:13:32;;;;;;;9.50;4.73;;;;;;;41.32;20.78;99645.06;5085654;28;20408;-31
2023/08/26 15:15:58;;;;;;;7.13;4.17;;;;;;;42.22;19.01;99656.63;5085597;28;20035;-30
2023/08/26 15:18:23;;;;;;;7.87;4.87;;;;;;;42.20;19.34;99650.66;5085847;28;20028;-29
2023/08/26 15:20:49;;;;;;;9.03;4.57;;;;;;;42.40;19.34;99650.44;5085763;28;20028;-29
2023/08/26 15:23:18;;;;;;;6.78;4.53;;;;;;;41.73;19.51;99640.78;5086251;28;20042;-29
2023/08/26 15:25:45;;;;;;;7.00;4.13;;;;;;;41.24;19.71;99650.06;5089351;28;20043;-30
2023/08/26 15:28:10;;;;;;;6.60;4.32;;;;;;;40.99;19.32;99645.06;5089089;28;20028;-30
2023/08/26 15:30:36;;;;;;;8.87;4.67;;;;;;;41.09;19.41;99644.03;5089323;28;20165;-30
2023/08/26 15:33:02;;;;;;;6.83;4.70;;;;;;;41.11;20.09;99649.16;5092207;28;20115;-29
2023/08/26 15:35:28;;;;;;;6.47;4.30;;;;;;;41.96;19.40;99654.50;5098103;28;20028;-29
2023/08/26 15:37:53;;;;;;;7.50;4.87;;;;;;;41.65;19.83;99650.59;5089146;28;20028;-31
2023/08/26 15:40:19;;;;;;;7.77;3.87;;;;;;;40.31;20.58;99639.03;5089326;28;20035;-30
2023/08/26 15:42:45;;;;;;;8.13;4.70;;;;;;;39.48;21.88;99642.66;5101400;28;20107;-29
2023/08/26 15:45:11;;;;;;;5.93;4.07;;;;;;;39.48;22.02;99651.03;5092607;28;20579;-31
2023/08/26 15:47:36;;;;;;;7.77;4.40;;;;;;;40.00;21.05;99644.06;5098259;28;20048;-31
2023/08/26 15:50:02;;;;;;;7.67;4.47;;;;;;;39.71;21.31;99638.25;5089753;28;20021;-30
2023/08/26 15:52:30;;;;;;;6.57;4.63;;;;;;;38.71;22.55;99649.84;5089654;28;20016;-30
2023/08/26 15:54:56;;;;;;;7.40;4.60;;;;;;;37.81;23.50;99652.19;5089997;28;20022;-29
2023/08/26 15:57:25;;;;;;;7.37;4.63;;;;;;;36.86;24.11;99631.97;5092102;28;20448;-29
2023/08/26 15:59:59;;;;;;;8.45;4.20;;;;;;;36.44;25.54;99635.78;5098517;28;20106;-32
2023/08/26 16:02:25;;;;;;;7.82;4.72;;;;;;;36.16;26.09;99637.50;5089369;28;20053;-29
2023/08/26 16:04:53;;;;;;;9.63;4.63;;;;;;;35.76;26.99;99629.28;5089842;28;20105;-29
2023/08/26 16:07:18;;;;;;;7.68;4.70;;;;;;;35.75;26.82;99632.47;5089679;28;20522;-30
2023/08/26 16:09:44;;;;;;;8.77;4.68;;;;;;;35.82;27.51;99629.69;5089219;28;20016;-31
2023/08/26 16:12:16;;;;;;;8.43;4.55;;;;;;;35.40;27.79;99637.66;5089236;28;20031;-32
2023/08/26 16:14:46;;;;;;;6.90;4.82;;;;;;;35.89;27.44;99629.66;5089576;28;20056;-29
2023/08/26 16:17:16;;;;;;;8.48;5.00;;;;;;;36.15;26.75;99636.72;5089309;28;20085;-30
2023/08/26 16:19:41;;;;;;;13.32;5.70;;;;;;;36.19;26.34;99637.47;5089082;28;20036;-30
2023/08/26 16:22:11;;;;;;;9.63;5.05;;;;;;;35.52;27.19;99625.38;5089062;28;20024;-32
2023/08/26 16:24:36;;;;;;;8.90;6.05;;;;;;;35.52;27.35;99636.44;5088788;28;20044;-30
2023/08/26 16:27:04;;;;;;;11.32;7.03;;;;;;;35.00;28.24;99623.00;5089165;28;20503;-29
2023/08/26 16:29:31;;;;;;;10.45;5.78;;;;;;;34.81;28.54;99634.47;5088732;28;20040;-30
2023/08/26 16:31:56;;;;;;;12.02;5.28;;;;;;;34.29;28.61;99626.44;5089144;28;20043;-30
2023/08/26 16:34:24;;;;;;;9.10;5.30;;;;;;;34.32;28.60;99628.41;5088839;28;20028;-29
2023/08/26 16:36:51;;;;;;;8.93;4.45;;;;;;;34.20;29.30;99628.75;5088861;28;20027;-29
2023/08/26 16:39:17;;;;;;;10.43;3.92;;;;;;;33.80;29.87;99623.03;5088770;28;20012;-29
2023/08/26 16:41:42;;;;;;;7.05;4.13;;;;;;;33.86;29.79;99636.47;5094679;28;20026;-31
2023/08/26 16:44:08;;;;;;;16.98;5.43;;;;;;;33.78;30.41;99639.22;5102810;28;20039;-32
2023/08/26 16:46:33;;;;;;;9.48;4.28;;;;;;;33.53;30.26;99641.81;5088836;28;20020;-29
2023/08/26 16:48:58;;;;;;;7.07;4.25;;;;;;;33.66;30.31;99644.28;5088550;28;20076;-30
2023/08/26 16:51:24;;;;;;;9.45;3.78;;;;;;;33.39;30.60;99641.72;5088750;28;20035;-33
2023/08/26 16:53:50;;;;;;;6.10;3.80;;;;;;;33.33;30.70;99644.03;5088489;28;20028;-29
2023/08/26 16:56:15;;;;;;;7.60;3.85;;;;;;;33.26;30.96;99641.19;5087832;28;20020;-30
2023/08/26 16:58:41;;;;;;;10.38;4.53;;;;;;;33.31;30.95;99645.59;5099583;28;20035;-30
2023/08/26 17:01:08;;;;;;;9.13;4.72;;;;;;;33.10;31.51;99640.69;5089272;28;20026;-29
2023/08/26 17:03:36;;;;;;;6.68;4.10;;;;;;;33.08;31.66;99638.31;5088243;28;20077;-31
2023/08/26 17:06:03;;;;;;;8.57;4.47;;;;;;;33.10;31.45;99646.19;5086645;28;20456;-31
2023/08/26 17:08:28;;;;;;;6.68;4.38;;;;;;;33.05;31.22;99644.56;5088012;28;20016;-30
2023/08/26 17:10:54;;;;;;;14.00;4.70;;;;;;;32.75;31.80;99639.16;5088574;28;20035;-30
2023/08/26 17:13:24;;;;;;;8.75;4.32;;;;;;;32.84;31.55;99645.16;5087755;28;20020;-29
2023/08/26 17:15:49;;;;;;;7.57;4.47;;;;;;;32.55;32.12;99657.88;5087533;28;20544;-32
2023/08/26 17:18:15;;;;;;;9.88;3.88;;;;;;;32.66;32.31;99664.31;5088233;28;20043;-30
2023/08/26 17:20:40;;;;;;;9.32;4.18;;;;;;;32.54;32.18;99650.75;5088141;28;20024;-31
2023/08/26 17:23:05;;;;;;;8.50;4.63;;;;;;;32.39;32.55;99658.84;5088039;28;20124;-31
2023/08/26 17:25:31;;;;;;;10.27;4.68;;;;;;;32.25;32.60;99661.44;5098390;28;20020;-29
2023/08/26 17:27:56;;;;;;;6.10;3.90;;;;;;;32.19;32.76;99660.19;5100569;28;20023;-29
2023/08/26 17:30:22;;;;;;;5.90;3.78;;;;;;;32.17;32.62;99659.78;5098908;28;20110;-30
2023/08/26 17:32:47;;;;;;;9.57;3.97;;;;;;;32.24;32.54;99662.59;5100500;28;20479;-30
2023/08/26 17:35:14;;;;;;;11.02;4.43;;;;;;;32.08;33.11;99668.34;5101356;28;20072;-30
2023/08/26 17:37:39;;;;;;;7.90;4.05;;;;;;;32.02;34.22;99673.38;5100463;28;20028;-30
2023/08/26 17:40:05;;;;;;;7.00;3.90;;;;;;;31.68;34.21;99669.72;5097351;28;20031;-30
2023/08/26 17:42:30;;;;;;;10.38;4.45;;;;;;;31.56;34.51;99684.50;5097496;28;20141;-29
2023/08/26 17:44:58;;;;;;;7.82;4.10;;;;;;;31.43;35.29;99683.88;5100983;28;20046;-31
2023/08/26 17:47:23;;;;;;;5.65;3.78;;;;;;;31.41;36.18;99693.69;5098895;28;20048;-30
2023/08/26 17:49:49;;;;;;;7.88;4.18;;;;;;;31.49;36.22;99686.34;5098813;28;20028;-29
2023/08/26 17:52:14;;;;;;;8.48;5.00;;;;;;;31.44;34.45;99699.25;5099731;28;20376;-29
2023/08/26 17:54:40;;;;;;;5.13;3.72;;;;;;;31.34;35.38;99705.34;5098616;28;20463;-31
2023/08/26 17:57:05;;;;;;;7.55;3.75;;;;;;;31.10;35.04;99706.53;5099749;28;20022;-31
2023/08/26 17:59:30;;;;;;;6.65;4.10;;;;;;;31.08;34.42;99708.88;5097971;28;20020;-30
2023/08/26 18:01:56;;;;;;;8.82;4.13;;;;;;;31.10;34.37;99717.56;5099416;28;20345;-29
2023/08/26 18:04:24;;;;;;;6.15;3.63;;;;;;;31.07;34.76;99717.50;5098911;28;20034;-30
2023/08/26 18:06:50;;;;;;;6.63;3.90;;;;;;;31.21;33.91;99735.06;5095387;28;20031;-30
2023/08/26 18:09:15;;;;;;;5.22;3.28;;;;;;;31.06;34.06;99722.19;5101310;28;20400;-29
2023/08/26 18:11:40;;;;;;;8.73;4.10;;;;;;;31.18;34.35;99730.28;5100302;28;20026;-30
2023/08/26 18:14:06;;;;;;;7.40;3.90;;;;;;;31.45;33.24;99733.16;5098104;28;20457;-29
2023/08/26 18:16:31;;;;;;;7.47;3.90;;;;;;;31.11;33.84;99743.13;5094003;28;20038;-29
2023/08/26 18:19:00;;;;;;;7.13;3.92;;;;;;;30.71;34.48;99734.09;5100476;27;20027;-32
2023/08/26 18:21:25;;;;;;;7.68;4.63;;;;;;;30.94;34.32;99736.13;5092103;28;20514;-31
2023/08/26 18:23:50;;;;;;;10.73;6.43;;;;;;;30.73;34.08;99744.72;5091231;28;20016;-30
2023/08/26 18:26:16;;;;;;;9.77;4.43;;;;;;;30.72;34.17;99743.94;5098430;28;20498;-31
2023/08/26 18:28:41;;;;;;;7.63;3.80;;;;;;;30.77;33.94;99742.84;5095590;28;20039;-29
2023/08/26 18:31:07;;;;;;;6.63;4.15;;;;;;;30.67;34.19;99735.16;5099293;28;20028;-29
2023/08/26 18:33:32;;;;;;;9.35;4.57;;;;;;;30.59;34.66;99757.06;5100034;28;20027;-29
2023/08/26 18:35:59;;;;;;;7.82;4.18;;;;;;;30.31;35.21;99749.00;5096353;28;20112;-32
2023/08/26 18:38:25;;;;;;;7.45;4.53;;;;;;;30.42;36.00;99751.97;5096063;28;20034;-29
2023/08/26 18:40:57;;;;;;;8.48;4.13;;;;;;;30.33;36.26;99745.88;5097300;28;20016;-31
2023/08/26 18:43:23;;;;;;;8.57;3.83;;;;;;;30.11;36.52;99739.88;5099951;28;20035;-29
2023/08/26 18:45:49;;;;;;;6.97;3.60;;;;;;;29.80;37.29;99757.22;5093944;28;20020;-33
2023/08/26 18:48:14;;;;;;;9.68;3.80;;;;;;;29.94;37.29;99757.56;5097994;28;20040;-30
2023/08/26 18:50:40;;;;;;;5.22;3.45;;;;;;;29.90;37.43;99762.19;5096103;28;20031;-29
2023/08/26 18:53:08;;;;;;;5.85;3.47;;;;;;;29.87;37.55;99759.34;5099210;28;20032;-29
2023/08/26 18:55:34;;;;;;;5.82;3.22;;;;;;;29.89;37.47;99774.31;5099654;28;20456;-30
2023/08/26 18:58:02;;;;;;;7.43;4.22;;;;;;;29.75;37.89;99777.53;5095274;28;20019;-30
2023/08/26 19:00:27;;;;;;;;;;;;;;;29.55;37.96;99784.84;5101793;28;20039;-32
2023/08/26 19:02:52;;;;;;;7.07;3.60;;;;;;;29.63;38.18;99785.84;5100762;28;19916;-32
2023/08/26 19:05:21;;;;;;;7.07;3.42;;;;;;;29.53;37.99;99769.88;5099924;28;20293;-29
2023/08/26 19:07:46;;;;;;;6.35;3.85;;;;;;;29.36;38.35;99787.47;5103075;28;20023;-29
2023/08/26 19:10:11;;;;;;;8.48;4.22;;;;;;;29.47;38.45;99788.56;5103538;28;20076;-29
2023/08/26 19:12:37;;;;;;;6.72;3.60;;;;;;;29.59;38.37;99791.25;5101677;28;20027;-29
2023/08/26 19:15:05;;;;;;;6.15;4.13;;;;;;;29.20;39.29;99796.50;5100707;28;20020;-29
2023/08/26 19:17:34;;;;;;;7.90;4.47;;;;;;;29.25;39.49;99788.00;5089614;28;20031;-29
2023/08/26 19:19:59;;;;;;;8.10;4.07;;;;;;;29.14;39.64;99795.16;5089588;28;20059;-29
2023/08/26 19:22:27;;;;;;;8.07;4.38;;;;;;;28.90;40.35;99800.72;5089816;28;20104;-29
2023/08/26 19:24:55;;;;;;;8.68;4.22;;;;;;;28.82;40.15;99803.25;5089646;28;20016;-29
2023/08/26 19:27:20;;;;;;;9.40;4.80;;;;;;;28.81;40.72;99793.44;5100241;28;20511;-29
2023/08/26 19:29:45;;;;;;;8.48;4.55;;;;;;;28.68;41.29;99802.84;5090449;27;20031;-30
2023/08/26 19:32:13;;;;;;;8.55;4.70;;;;;;;28.61;41.41;99808.13;5096655;28;20015;-31
2023/08/26 19:34:38;;;;;;;;;;;;;;;28.43;41.79;99794.63;5096808;28;20068;-29
2023/08/26 19:37:06;;;;;;;7.45;4.40;;;;;;;28.63;41.16;99811.34;5095250;28;19912;-29
2023/08/26 19:39:32;;;;;;;8.98;4.50;;;;;;;28.39;42.04;99818.41;5089474;28;20066;-29
2023/08/26 19:42:00;;;;;;;10.90;4.97;;;;;;;28.09;43.20;99809.63;5089342;28;20020;-29
2023/08/26 19:44:28;;;;;;;8.65;4.95;;;;;;;28.20;42.79;99807.25;5088909;28;20016;-29
2023/08/26 19:46:54;;;;;;;9.38;5.47;;;;;;;28.12;42.68;99811.72;5088113;28;20048;-31
2023/08/26 19:49:19;;;;;;;8.40;5.22;;;;;;;28.09;43.44;99819.81;5070236;28;20085;-28
2023/08/26 19:51:47;;;;;;;8.48;5.43;;;;;;;28.02;43.49;99821.19;5088314;28;20016;-29
2023/08/26 19:54:15;;;;;;;8.15;5.80;;;;;;;27.77;43.93;99819.53;5088164;28;20028;-29
2023/08/26 19:56:40;;;;;;;;;;;;;;;28.05;43.53;99820.50;5088298;28;20085;-30
2023/08/26 19:59:06;;;;;;;13.45;6.70;;;;;;;27.96;44.71;99819.81;5096325;28;20378;-30
2023/08/26 20:01:33;;;;;;;11.38;7.47;;;;;;;27.55;45.20;99818.81;5100500;28;20059;-29
2023/08/26 20:03:58;;;;;;;13.77;9.27;;;;;;;27.65;45.04;99823.84;5100009;28;20061;-28
2023/08/26 20:06:24;;;;;;;15.05;11.43;;;;;;;27.67;45.42;99823.53;5099441;28;20099;-29
2023/08/26 20:08:51;;;;;;;15.40;12.85;;;;;;;27.49;46.18;99831.13;5100356;28;20024;-31
2023/08/26 20:11:16;;;;;;;16.20;13.90;;;;;;;27.42;46.50;99830.84;5103909;28;20034;-30
2023/08/26 20:13:42;;;;;;;21.70;15.68;;;;;;;27.55;46.11;99835.25;5107966;28;20039;-31
2023/08/26 20:16:07;;;;;;;21.23;17.20;;;;;;;27.38;46.05;99835.41;5108230;28;20158;-30
2023/08/26 20:18:33;;;;;;;25.45;17.90;;;;;;;27.40;46.60;99828.47;5108037;28;20040;-29
2023/08/26 20:20:59;;;;;;;19.90;16.65;;;;;;;27.48;46.01;99834.19;5107963;28;20118;-29
2023/08/26 20:23:27;;;;;;;20.15;15.68;;;;;;;27.33;46.17;99827.41;5108004;28;20102;-28
2023/08/26 20:25:57;;;;;;;22.63;16.10;;;;;;;27.09;47.14;99826.16;5107715;28;20073;-30
2023/08/26 20:28:24;;;;;;;23.10;17.08;;;;;;;27.09;46.88;99831.63;5107834;28;20046;-30
2023/08/26 20:31:00;;;;;;;19.75;17.05;;;;;;;27.16;46.96;99834.63;5107547;28;20491;-28
2023/08/26 20:33:27;;;;;;;19.10;17.00;;;;;;;26.93;47.53;99830.63;5099576;28;20019;-28
2023/08/26 20:35:59;;;;;;;20.13;16.83;;;;;;;26.90;47.88;99836.78;5096340;28;20051;-28
2023/08/26 20:38:24;;;;;;;22.33;16.55;;;;;;;27.00;47.09;99830.91;5087114;28;20035;-27
2023/08/26 20:40:50;;;;;;;23.67;18.52;;;;;;;26.90;47.66;99834.06;5087066;28;20097;-31
2023/08/26 20:43:15;;;;;;;22.85;19.90;;;;;;;26.75;48.97;99836.25;5087187;28;20024;-29
2023/08/26 20:45:41;;;;;;;25.63;19.45;;;;;;;26.82;48.63;99833.78;5087326;28;20024;-29
2023/08/26 20:48:06;;;;;;;22.48;19.67;;;;;;;26.58;49.17;99828.16;5087286;28;20101;-29
2023/08/26 20:50:33;;;;;;;20.95;18.05;;;;;;;26.74;49.26;99837.38;5086976;28;20096;-29
2023/08/26 20:52:59;;;;;;;19.88;17.30;;;;;;;26.71;49.78;99840.78;5086902;28;20149;-28
2023/08/26 20:55:27;;;;;;;17.23;14.80;;;;;;;26.69;49.34;99834.84;5086986;28;20103;-31
2023/08/26 20:57:52;;;;;;;19.35;14.85;;;;;;;26.67;49.55;99828.91;5086703;28;20036;-29
2023/08/26 21:00:18;;;;;;;14.80;12.38;;;;;;;26.65;50.05;99836.66;5091566;28;20024;-30
2023/08/26 21:02:43;;;;;;;15.57;11.38;;;;;;;26.49;50.75;99822.72;5093153;28;20801;-31
2023/08/26 21:05:08;;;;;;;12.10;10.30;;;;;;;26.55;50.40;99821.41;5086626;28;20039;-29
2023/08/26 21:07:34;;;;;;;14.20;9.80;;;;;;;26.44;51.12;99826.47;5086711;28;20035;-30
2023/08/26 21:09:59;;;;;;;13.68;10.40;;;;;;;26.62;51.01;99831.84;5086670;28;20046;-30
2023/08/26 21:12:26;;;;;;;16.00;9.95;;;;;;;26.70;50.70;99836.44;5086537;28;20027;-29
2023/08/26 21:14:52;;;;;;;13.48;10.32;;;;;;;26.50;52.19;99823.53;5086539;28;20775;-30
2023/08/26 21:17:18;;;;;;;13.70;10.15;;;;;;;26.33;52.70;99825.22;5086316;28;20170;-31
2023/08/26 21:19:43;;;;;;;13.95;10.30;;;;;;;26.09;53.68;99831.28;5086231;28;20024;-29
2023/08/26 21:22:08;;;;;;;14.43;9.88;;;;;;;26.06;54.12;99816.38;5085462;28;20031;-30
2023/08/26 21:24:34;;;;;;;12.63;9.45;;;;;;;26.17;54.17;99837.84;5086374;28;20051;-31
2023/08/26 21:26:59;;;;;;;14.75;9.20;;;;;;;26.10;54.83;99826.66;5086616;28;20555;-30
2023/08/26 21:29:25;;;;;;;14.00;9.60;;;;;;;26.08;54.89;99831.66;5086332;28;20057;-29
2023/08/26 21:31:50;;;;;;;13.85;8.45;;;;;;;26.09;55.35;99830.50;5088564;28;20028;-30
2023/08/26 21:34:15;;;;;;;14.20;8.77;;;;;;;26.05;55.75;99825.72;5106473;28;20126;-31
2023/08/26 21:36:42;;;;;;;11.77;8.02;;;;;;;26.08;55.44;99843.38;5106124;28;20023;-29
2023/08/26 21:39:07;;;;;;;13.10;8.43;;;;;;;26.14;55.40;99833.84;5106048;28;20084;-29
2023/08/26 21:41:33;;;;;;;11.57;8.45;;;;;;;26.01;55.73;99841.16;5106235;28;20035;-30
2023/08/26 21:43:58;;;;;;;10.20;8.07;;;;;;;26.17;55.81;99837.84;5106240;28;20115;-29
2023/08/26 21:46:24;;;;;;;12.45;8.35;;;;;;;26.12;55.85;99840.78;5106441;28;20031;-30
2023/08/26 21:48:50;;;;;;;13.45;8.40;;;;;;;26.22;55.04;99835.75;5101776;28;20050;-30
2023/08/26 21:51:15;;;;;;;11.65;8.13;;;;;;;26.06;55.43;99827.28;5106141;28;20777;-29
2023/08/26 21:53:40;;;;;;;13.32;8.52;;;;;;;25.88;57.08;99838.59;5105998;28;20037;-29
2023/08/26 21:56:06;;;;;;;13.15;7.68;;;;;;;25.91;57.09;99838.78;5106146;28;20042;-29
2023/08/26 21:58:31;;;;;;;11.25;7.30;;;;;;;25.78;57.79;99837.03;5106024;28;20469;-31
2023/08/26 22:01:00;;;;;;;10.38;7.60;;;;;;;25.88;57.31;99842.13;5105900;28;20118;-29
2023/08/26 22:03:25;;;;;;;12.93;8.00;;;;;;;25.72;58.14;99843.78;5106443;28;20071;-32
2023/08/26 22:05:53;;;;;;;10.13;7.22;;;;;;;26.03;57.33;99849.00;5105920;28;20072;-29
2023/08/26 22:08:19;;;;;;;11.25;7.20;;;;;;;25.85;58.59;99842.78;5106070;28;20167;-31
2023/08/26 22:10:47;;;;;;;10.77;7.68;;;;;;;25.81;58.66;99837.19;5105780;28;20122;-30
2023/08/26 22:13:12;;;;;;;12.52;7.55;;;;;;;25.74;59.04;99847.00;5106013;28;20031;-30
2023/08/26 22:15:44;;;;;;;9.77;7.10;;;;;;;25.95;58.76;99847.09;5105561;28;20025;-29